Terminal Aerodrome Forecast
Issued by NWS

Home | Current Version | Previous Version | Graphics & Text | Print | Product List | Glossary On
Versions: 1 2 3 4 5 6 7 8 9 10 11 12 13 14 15 16 17
000
FTUS43 KGRB 161600 AAB
TAFMTW
TAF AMD
KMTW 161638Z 1617/1712 13008KT P6SM SCT009
     FM161900 14008KT P6SM SCT150
     FM170000 19005KT P6SM SCT070=

USA.gov is the U.S. government's official web portal to all federal, state and local government web resources and services.